Time;durP1;ratioP1;P1;durP2;ratioP2;P2;SDS_P1;SDS_P2;PMS_P1;PMS_P2;Temp;Humidity;BMP_temperature;BMP_pressure;BME280_temperature;BME280_humidity;BME280_pressure;Samples;Min_cycle;Max_cycle;Signal;HPM_P1;HPM_P2
2022/03/15 00:01:57;;;;;;;15.27;5.93;;;;;;;3.39;100.00;102841.66;6066669;23;20514;-80
2022/03/15 00:04:26;;;;;;;15.35;6.95;;;;;;;3.36;100.00;102844.06;6070750;23;20030;-81
2022/03/15 00:06:58;;;;;;;19.33;7.05;;;;;;;3.34;100.00;102836.16;6067477;23;20022;-80
2022/03/15 00:09:27;;;;;;;14.63;6.50;;;;;;;3.32;100.00;102841.25;6064166;23;20449;-81
2022/03/15 00:12:01;;;;;;;16.27;6.85;;;;;;;3.32;100.00;102842.97;6040825;23;20528;-81
2022/03/15 00:14:29;;;;;;;15.77;6.10;;;;;;;3.30;100.00;102841.97;6061581;23;20519;-80
2022/03/15 00:16:59;;;;;;;11.27;5.88;;;;;;;3.27;100.00;102849.56;6076535;23;20053;-80
2022/03/15 00:19:27;;;;;;;15.90;6.00;;;;;;;3.24;100.00;102844.19;6104348;23;20018;-80
2022/03/15 00:21:59;;;;;;;13.88;6.30;;;;;;;3.22;100.00;102838.88;6102934;23;20021;-81
2022/03/15 00:24:27;;;;;;;;;;;;;;;3.19;100.00;102840.38;6222073;23;20024;-82
2022/03/15 00:26:57;;;;;;;12.88;6.00;;;;;;;3.16;100.00;102840.16;6189020;23;19919;-80
2022/03/15 00:29:26;;;;;;;14.23;6.27;;;;;;;3.11;100.00;102839.88;6224130;23;20397;-80
2022/03/15 00:31:56;;;;;;;12.20;5.47;;;;;;;3.09;100.00;102834.56;6179087;23;20020;-80
2022/03/15 00:34:25;;;;;;;20.65;6.47;;;;;;;3.09;100.00;102837.16;6242452;23;20006;-81
2022/03/15 00:36:54;;;;;;;15.25;6.43;;;;;;;3.08;100.00;102831.84;6263905;22;20401;-80
2022/03/15 00:39:22;;;;;;;13.07;5.95;;;;;;;3.06;100.00;102833.44;6221694;23;20016;-80
2022/03/15 00:41:52;;;;;;;7.27;4.73;;;;;;;3.02;100.00;102840.16;6182903;23;20016;-79
2022/03/15 00:44:22;;;;;;;11.35;6.57;;;;;;;3.00;100.00;102827.84;6201399;23;20047;-81
2022/03/15 00:46:52;;;;;;;13.93;6.70;;;;;;;2.98;100.00;102835.53;6216555;23;20027;-81
2022/03/15 00:49:21;;;;;;;15.70;6.70;;;;;;;2.96;100.00;102841.47;6214281;23;20028;-80
2022/03/15 00:51:57;;;;;;;15.38;6.78;;;;;;;2.93;100.00;102831.75;6167403;23;20453;-80
2022/03/15 00:54:28;;;;;;;14.05;6.30;;;;;;;2.92;100.00;102832.53;6216499;23;20054;-79
2022/03/15 00:56:59;;;;;;;10.38;5.57;;;;;;;2.89;100.00;102830.66;6192212;23;20020;-80
2022/03/15 00:59:28;;;;;;;12.98;7.00;;;;;;;2.88;100.00;102833.16;6213804;23;20031;-80
2022/03/15 01:01:57;;;;;;;18.63;7.35;;;;;;;2.86;100.00;102832.16;6201385;23;20441;-80
2022/03/15 01:04:26;;;;;;;18.83;7.28;;;;;;;2.85;100.00;102826.00;6199275;23;20016;-82
2022/03/15 01:06:55;;;;;;;15.07;7.63;;;;;;;2.85;100.00;102830.34;6173859;23;20031;-79
2022/03/15 01:09:24;;;;;;;12.68;6.85;;;;;;;2.83;100.00;102826.72;6250322;23;20341;-80
2022/03/15 01:11:53;;;;;;;11.77;7.20;;;;;;;2.80;100.00;102835.25;6190646;23;20024;-80
2022/03/15 01:14:22;;;;;;;17.73;8.02;;;;;;;2.79;100.00;102832.53;6162217;23;20027;-80
2022/03/15 01:16:51;;;;;;;17.30;7.68;;;;;;;2.80;100.00;102823.91;6249848;23;20024;-80
2022/03/15 01:19:19;;;;;;;15.27;7.72;;;;;;;2.80;100.00;102834.31;6196754;23;20020;-81
2022/03/15 01:21:52;;;;;;;18.23;8.38;;;;;;;2.79;100.00;102841.25;6224622;23;20023;-80
2022/03/15 01:24:21;;;;;;;20.08;9.20;;;;;;;2.81;100.00;102839.63;6212534;23;20023;-80
2022/03/15 01:26:51;;;;;;;21.00;8.38;;;;;;;2.82;100.00;102837.97;6188228;23;20209;-80
2022/03/15 01:29:22;;;;;;;17.63;7.85;;;;;;;2.81;100.00;102830.94;6188245;23;20027;-80
2022/03/15 01:31:51;;;;;;;18.60;8.23;;;;;;;2.78;100.00;102831.63;6253078;23;20233;-80
2022/03/15 01:34:20;;;;;;;23.77;8.60;;;;;;;2.77;100.00;102829.81;6226414;23;20027;-80
2022/03/15 01:36:50;;;;;;;14.80;9.05;;;;;;;2.76;100.00;102832.31;6164423;23;20024;-80
2022/03/15 01:39:19;;;;;;;25.33;8.32;;;;;;;2.74;100.00;102824.41;6218666;23;20457;-81
2022/03/15 01:41:48;;;;;;;20.48;8.75;;;;;;;2.73;100.00;102833.91;6212388;23;20214;-81
2022/03/15 01:44:19;;;;;;;30.60;11.18;;;;;;;2.71;100.00;102830.31;6251718;23;20020;-80
2022/03/15 01:46:49;;;;;;;19.48;10.15;;;;;;;2.73;100.00;102831.31;6185688;23;20381;-81
2022/03/15 01:49:22;;;;;;;33.90;12.27;;;;;;;2.76;100.00;102825.44;6199046;23;20020;-81
2022/03/15 01:51:51;;;;;;;22.17;10.70;;;;;;;2.77;100.00;102826.31;6163298;23;20316;-80
2022/03/15 01:54:20;;;;;;;19.73;9.63;;;;;;;2.75;100.00;102820.13;6246918;23;20011;-80
2022/03/15 01:56:49;;;;;;;24.50;9.98;;;;;;;2.70;100.00;102825.94;6199140;23;20027;-80
2022/03/15 01:59:18;;;;;;;20.38;10.15;;;;;;;2.68;100.00;102827.50;6216390;23;20023;-80
2022/03/15 02:01:48;;;;;;;23.92;10.10;;;;;;;2.67;100.00;102825.72;6195848;23;20016;-81
2022/03/15 02:04:17;;;;;;;21.02;10.38;;;;;;;2.64;100.00;102838.50;6224271;23;20026;-81
2022/03/15 02:06:45;;;;;;;18.35;10.68;;;;;;;2.61;100.00;102830.50;6187759;23;20301;-81
2022/03/15 02:09:15;;;;;;;19.40;10.00;;;;;;;2.58;100.00;102827.69;6240885;23;20028;-80
2022/03/15 02:11:44;;;;;;;28.58;10.52;;;;;;;2.56;100.00;102824.09;6185129;23;20012;-80
2022/03/15 02:14:13;;;;;;;23.30;10.77;;;;;;;2.53;100.00;102824.78;6164243;23;20028;-80
2022/03/15 02:16:43;;;;;;;25.83;11.07;;;;;;;2.50;100.00;102824.56;6160698;23;20031;-80
2022/03/15 02:19:12;;;;;;;22.93;11.43;;;;;;;2.49;100.00;102819.25;6200416;23;20012;-80
2022/03/15 02:21:41;;;;;;;19.90;10.75;;;;;;;2.49;100.00;102824.47;6221673;23;20103;-80
2022/03/15 02:24:09;;;;;;;25.92;11.07;;;;;;;2.46;100.00;102813.88;6225964;23;20024;-80
2022/03/15 02:26:38;;;;;;;26.00;11.35;;;;;;;2.47;100.00;102807.84;6232532;23;20238;-80
2022/03/15 02:29:08;;;;;;;17.55;10.75;;;;;;;2.47;100.00;102810.44;6224682;23;20020;-80
2022/03/15 02:31:36;;;;;;;28.15;13.15;;;;;;;2.44;100.00;102805.03;6221995;23;20215;-81
2022/03/15 02:34:07;;;;;;;;;;;;;;;2.40;100.00;102803.94;6215963;23;20449;-80
2022/03/15 02:36:35;;;;;;;19.83;10.55;;;;;;;2.38;100.00;102815.03;6200528;23;20144;-80
2022/03/15 02:39:05;;;;;;;19.75;10.68;;;;;;;2.36;100.00;102801.00;6206211;23;20016;-80
2022/03/15 02:41:33;;;;;;;21.73;10.05;;;;;;;2.34;100.00;102793.09;6221045;23;20016;-80
2022/03/15 02:44:02;;;;;;;17.83;10.82;;;;;;;2.32;100.00;102798.19;6221138;23;20020;-80
2022/03/15 02:46:32;;;;;;;19.40;11.10;;;;;;;2.31;100.00;102791.19;6189459;23;20031;-81
2022/03/15 02:49:03;;;;;;;19.48;10.70;;;;;;;2.29;100.00;102803.19;6227279;23;20020;-80
2022/03/15 02:51:31;;;;;;;22.63;11.38;;;;;;;2.28;100.00;102801.38;6189354;23;20016;-81
2022/03/15 02:54:06;;;;;;;23.25;10.82;;;;;;;2.28;100.00;102796.19;6225006;23;20024;-80
2022/03/15 02:56:39;;;;;;;14.95;10.38;;;;;;;2.26;100.00;102792.56;6163352;23;20062;-81
2022/03/15 02:59:14;;;;;;;26.95;11.45;;;;;;;2.27;100.00;102783.97;6192753;23;20480;-79
2022/03/15 03:01:44;;;;;;;30.55;12.75;;;;;;;2.28;100.00;102780.56;6187848;23;20372;-81
2022/03/15 03:04:13;;;;;;;21.17;11.65;;;;;;;2.27;100.00;102780.47;6212959;23;20027;-80
2022/03/15 03:06:43;;;;;;;26.83;11.55;;;;;;;2.27;100.00;102781.38;6185464;23;20024;-80
2022/03/15 03:09:11;;;;;;;26.65;11.38;;;;;;;2.26;100.00;102782.16;6189451;23;20024;-79
2022/03/15 03:11:40;;;;;;;20.50;12.60;;;;;;;2.26;100.00;102789.97;6222701;23;20084;-80
2022/03/15 03:14:13;;;;;;;22.70;12.38;;;;;;;2.26;100.00;102782.16;6195835;23;20345;-80
2022/03/15 03:16:44;;;;;;;28.70;12.00;;;;;;;2.25;100.00;102782.97;6141988;23;20024;-80
2022/03/15 03:19:13;;;;;;;17.92;11.45;;;;;;;2.26;100.00;102783.88;6221301;23;20238;-80
2022/03/15 03:21:42;;;;;;;27.05;12.75;;;;;;;2.26;100.00;102782.16;6227033;23;20449;-81
2022/03/15 03:24:11;;;;;;;29.00;14.73;;;;;;;2.28;100.00;102783.16;6222459;23;20642;-80
2022/03/15 03:26:40;;;;;;;28.05;13.23;;;;;;;2.29;100.00;102800.59;6201791;23;20016;-80
2022/03/15 03:29:11;;;;;;;26.23;14.00;;;;;;;2.32;100.00;102792.09;6244133;23;20024;-79
2022/03/15 03:31:42;;;;;;;39.83;14.77;;;;;;;2.36;100.00;102795.81;6226676;23;20023;-80
2022/03/15 03:34:13;;;;;;;40.78;15.82;;;;;;;2.40;100.00;102790.00;6211451;23;20382;-80
2022/03/15 03:36:41;;;;;;;24.30;13.65;;;;;;;2.45;100.00;102788.63;6217799;23;20362;-80
2022/03/15 03:39:26;;;;;;;28.25;14.27;;;;;;;2.48;100.00;102775.84;6195054;23;20449;-80
2022/03/15 03:41:56;;;;;;;35.00;16.77;;;;;;;2.51;100.00;102791.63;6223933;23;20443;-80
2022/03/15 03:44:24;;;;;;;23.95;14.90;;;;;;;2.55;100.00;102783.22;6196635;23;20474;-81
2022/03/15 03:46:53;;;;;;;25.63;13.70;;;;;;;2.59;100.00;102780.06;6224674;23;20020;-82
2022/03/15 03:49:22;;;;;;;23.48;13.73;;;;;;;2.61;100.00;102770.63;6214113;23;20024;-80
2022/03/15 03:51:51;;;;;;;18.80;11.95;;;;;;;2.61;100.00;102762.84;6172817;23;20016;-80
2022/03/15 03:54:23;;;;;;;21.73;12.93;;;;;;;2.60;100.00;102761.00;6191482;23;20016;-80
2022/03/15 03:56:52;;;;;;;22.95;13.98;;;;;;;2.60;100.00;102754.91;6222176;23;20354;-81
2022/03/15 03:59:20;;;;;;;20.88;12.98;;;;;;;2.58;100.00;102754.81;6185654;23;20368;-80
2022/03/15 04:01:49;;;;;;;21.58;13.63;;;;;;;2.56;100.00;102755.53;6164589;23;20079;-81
2022/03/15 04:04:18;;;;;;;27.38;14.93;;;;;;;2.55;100.00;102759.78;6220827;23;20540;-80
2022/03/15 04:06:47;;;;;;;25.20;13.75;;;;;;;2.56;100.00;102761.63;6213337;23;20024;-80
2022/03/15 04:09:16;;;;;;;27.95;15.60;;;;;;;2.59;100.00;102766.13;6200689;23;20042;-81
2022/03/15 04:11:44;;;;;;;29.25;15.48;;;;;;;2.61;100.00;102774.91;6186424;23;20023;-80
2022/03/15 04:14:13;;;;;;;31.98;16.15;;;;;;;2.64;100.00;102776.03;6247564;23;20020;-80
2022/03/15 04:16:44;;;;;;;29.13;15.90;;;;;;;2.66;100.00;102773.53;6242522;23;20020;-80
2022/03/15 04:19:16;;;;;;;37.92;16.65;;;;;;;2.69;100.00;102765.94;6223920;23;20350;-80
2022/03/15 04:21:44;;;;;;;27.80;14.82;;;;;;;2.73;100.00;102763.63;6222115;23;20224;-80
2022/03/15 04:24:14;;;;;;;32.88;17.48;;;;;;;2.76;100.00;102759.41;6241639;23;20016;-80
2022/03/15 04:26:43;;;;;;;31.58;15.82;;;;;;;2.80;100.00;102764.03;6236491;23;20024;-80
2022/03/15 04:29:12;;;;;;;34.95;18.55;;;;;;;2.83;100.00;102765.13;6227552;23;20020;-80
2022/03/15 04:31:40;;;;;;;29.15;16.27;;;;;;;2.87;100.00;102764.56;6217075;23;20320;-80
2022/03/15 04:34:09;;;;;;;28.23;16.13;;;;;;;2.91;100.00;102763.03;6252231;23;20023;-80
2022/03/15 04:36:39;;;;;;;30.80;17.17;;;;;;;2.94;100.00;102760.63;6206273;23;20146;-80
2022/03/15 04:39:08;;;;;;;37.58;18.20;;;;;;;2.97;100.00;102759.91;6175890;23;20043;-80
2022/03/15 04:41:36;;;;;;;34.88;17.83;;;;;;;3.01;100.00;102761.94;6187594;23;20043;-80
2022/03/15 04:44:06;;;;;;;32.00;21.00;;;;;;;3.03;100.00;102756.00;6200099;23;20016;-79
2022/03/15 04:46:35;;;;;;;40.03;21.03;;;;;;;3.06;100.00;102761.44;6214848;23;20485;-80
2022/03/15 04:49:03;;;;;;;39.45;20.08;;;;;;;3.09;100.00;102761.63;6225196;23;20016;-80
2022/03/15 04:51:32;;;;;;;35.13;20.50;;;;;;;3.13;100.00;102762.72;6191870;23;20146;-80
2022/03/15 04:54:01;;;;;;;33.67;20.98;;;;;;;3.17;100.00;102754.28;6248888;23;20008;-81
2022/03/15 04:56:30;;;;;;;37.03;19.98;;;;;;;3.21;100.00;102758.88;6208539;23;20027;-80
2022/03/15 04:59:05;;;;;;;42.75;21.02;;;;;;;3.24;100.00;102761.69;6167370;23;20031;-79
2022/03/15 05:01:34;;;;;;;42.13;22.85;;;;;;;3.28;100.00;102754.97;6238993;23;20670;-81
2022/03/15 05:04:03;;;;;;;43.97;22.15;;;;;;;3.32;100.00;102754.38;6164815;23;20020;-80
2022/03/15 05:06:33;;;;;;;44.13;25.33;;;;;;;3.35;100.00;102754.56;6209099;23;20023;-80
2022/03/15 05:09:02;;;;;;;41.08;22.15;;;;;;;3.36;100.00;102745.03;6197475;23;20023;-79
2022/03/15 05:11:34;;;;;;;37.30;21.33;;;;;;;3.37;100.00;102742.53;6247418;23;20476;-80
2022/03/15 05:14:03;;;;;;;45.95;23.35;;;;;;;3.38;100.00;102749.53;6185165;23;20032;-79
2022/03/15 05:16:34;;;;;;;36.40;22.05;;;;;;;3.42;100.00;102755.84;6157004;23;20035;-81
2022/03/15 05:19:02;;;;;;;39.88;22.63;;;;;;;3.43;100.00;102745.50;6216607;23;20023;-81
2022/03/15 05:21:31;;;;;;;38.17;20.25;;;;;;;3.45;100.00;102749.13;6136586;23;20039;-82
2022/03/15 05:24:00;;;;;;;38.45;21.85;;;;;;;3.48;100.00;102744.09;6210676;23;20023;-80
2022/03/15 05:26:29;;;;;;;34.97;21.65;;;;;;;3.49;100.00;102740.69;6211368;23;20024;-80
2022/03/15 05:28:58;;;;;;;53.25;25.02;;;;;;;3.51;100.00;102744.28;6199601;23;20027;-80
2022/03/15 05:31:30;;;;;;;45.15;25.33;;;;;;;3.56;100.00;102738.47;6217252;23;20027;-80
2022/03/15 05:33:59;;;;;;;41.93;24.50;;;;;;;3.58;100.00;102742.97;6224390;23;20016;-81
2022/03/15 05:36:27;;;;;;;37.97;25.02;;;;;;;3.62;100.00;102746.66;6187138;23;20024;-81
2022/03/15 05:38:56;;;;;;;46.47;24.85;;;;;;;3.64;100.00;102745.94;6247001;23;20027;-81
2022/03/15 05:41:24;;;;;;;42.22;24.25;;;;;;;3.65;100.00;102749.47;6209589;23;20016;-79
2022/03/15 05:43:55;;;;;;;47.65;25.52;;;;;;;3.69;100.00;102748.84;6199673;23;20038;-79
2022/03/15 05:46:24;;;;;;;38.38;22.35;;;;;;;3.70;100.00;102742.81;6183318;23;20027;-79
2022/03/15 05:48:54;;;;;;;47.00;27.88;;;;;;;3.72;100.00;102756.84;6245017;23;20410;-81
2022/03/15 05:51:22;;;;;;;42.78;25.60;;;;;;;3.75;100.00;102748.34;6235787;23;20024;-81
2022/03/15 05:53:51;;;;;;;49.42;25.02;;;;;;;3.77;100.00;102755.44;6193248;23;20458;-80
2022/03/15 05:56:19;;;;;;;49.45;24.75;;;;;;;3.78;100.00;102746.81;6187040;23;20024;-80
2022/03/15 05:58:49;;;;;;;45.67;26.10;;;;;;;3.81;100.00;102746.09;6223481;23;20532;-80
2022/03/15 06:01:21;;;;;;;44.30;24.90;;;;;;;3.83;100.00;102741.88;6203184;23;20020;-80
2022/03/15 06:04:34;;;;;;;40.85;23.20;;;;;;;3.84;100.00;102747.19;6182032;23;20020;-80
2022/03/15 06:07:13;;;;;;;35.70;21.85;;;;;;;3.85;100.00;102748.97;6211045;23;20024;-80
2022/03/15 06:09:43;;;;;;;41.20;23.40;;;;;;;3.89;100.00;102744.84;6190753;23;20221;-80
2022/03/15 06:12:11;;;;;;;43.20;22.63;;;;;;;3.90;100.00;102747.56;6194547;23;20028;-80
2022/03/15 06:14:40;;;;;;;43.42;22.90;;;;;;;3.92;100.00;102738.94;6215900;23;20229;-80
2022/03/15 06:17:10;;;;;;;39.42;23.92;;;;;;;3.95;100.00;102733.88;6246424;23;20358;-79
2022/03/15 06:19:40;;;;;;;42.10;22.70;;;;;;;3.97;100.00;102740.09;6161280;23;20031;-79
2022/03/15 06:22:09;;;;;;;60.42;31.15;;;;;;;3.99;100.00;102746.28;6221552;23;20019;-80
2022/03/15 06:24:38;;;;;;;40.03;23.02;;;;;;;4.01;100.00;102743.00;6219397;23;20127;-80
2022/03/15 06:27:09;;;;;;;37.45;21.95;;;;;;;4.04;100.00;102742.25;6224469;23;20023;-80
2022/03/15 06:29:37;;;;;;;44.28;23.88;;;;;;;4.06;100.00;102752.00;6219322;23;20023;-80
2022/03/15 06:32:07;;;;;;;42.63;21.40;;;;;;;4.08;100.00;102745.16;6247377;23;20020;-81
2022/03/15 06:34:52;;;;;;;45.10;23.75;;;;;;;4.12;100.00;102747.94;6220806;23;20019;-80
2022/03/15 06:37:20;;;;;;;48.08;23.73;;;;;;;4.14;100.00;102746.31;6197808;23;20023;-80
2022/03/15 06:39:55;;;;;;;38.70;22.70;;;;;;;4.17;100.00;102749.13;6200878;23;20027;-81
2022/03/15 06:42:34;;;;;;;38.65;22.77;;;;;;;4.20;100.00;102746.72;6240883;23;20028;-81
2022/03/15 06:45:03;;;;;;;50.17;25.42;;;;;;;4.22;100.00;102747.69;6216078;23;20016;-81
2022/03/15 06:47:34;;;;;;;44.85;24.90;;;;;;;4.26;100.00;102742.75;6188634;23;20024;-81
2022/03/15 06:50:08;;;;;;;37.38;21.65;;;;;;;4.29;100.00;102737.72;6248183;23;20464;-81
2022/03/15 06:52:37;;;;;;;39.13;24.30;;;;;;;4.35;100.00;102749.31;6219539;23;20229;-80
2022/03/15 06:55:06;;;;;;;44.17;22.77;;;;;;;4.38;100.00;102749.50;6195928;23;20012;-81
2022/03/15 06:57:35;;;;;;;60.70;27.60;;;;;;;4.42;100.00;102749.78;6243829;23;20597;-80
2022/03/15 07:00:11;;;;;;;47.33;25.23;;;;;;;4.46;100.00;102745.59;6217770;23;20020;-80
2022/03/15 07:02:40;;;;;;;49.20;25.83;;;;;;;4.49;100.00;102741.47;6224226;23;20341;-80
2022/03/15 07:05:10;;;;;;;55.60;25.73;;;;;;;4.54;100.00;102738.22;6231390;23;20115;-80
2022/03/15 07:07:39;;;;;;;51.08;26.63;;;;;;;4.58;100.00;102740.22;6204701;23;20024;-81
2022/03/15 07:10:10;;;;;;;38.45;24.27;;;;;;;4.61;100.00;102743.91;6195262;23;20016;-80
2022/03/15 07:12:39;;;;;;;48.08;27.25;;;;;;;4.64;100.00;102745.81;6219343;23;20020;-81
2022/03/15 07:15:10;;;;;;;50.28;26.52;;;;;;;4.67;100.00;102741.66;6238642;23;20012;-81
2022/03/15 07:17:47;;;;;;;54.70;25.60;;;;;;;4.70;100.00;102743.53;6220396;23;20349;-80
2022/03/15 07:20:16;;;;;;;47.97;27.48;;;;;;;4.73;100.00;102742.81;6172676;23;20257;-81
2022/03/15 07:22:45;;;;;;;58.05;27.08;;;;;;;4.77;100.00;102732.63;6206090;23;20026;-81
2022/03/15 07:25:14;;;;;;;59.35;27.23;;;;;;;4.82;100.00;102736.41;6233987;23;20016;-81
2022/03/15 07:27:43;;;;;;;40.15;24.38;;;;;;;4.88;100.00;102741.97;6186967;23;21307;-79
2022/03/15 07:30:13;;;;;;;48.72;27.27;;;;;;;4.93;100.00;102736.09;6221457;23;20016;-80
2022/03/15 07:32:41;;;;;;;48.22;25.73;;;;;;;4.96;100.00;102734.56;6246261;23;20020;-80
2022/03/15 07:35:11;;;;;;;47.28;26.55;;;;;;;4.99;100.00;102729.53;6229761;23;20345;-80
2022/03/15 07:37:51;;;;;;;54.40;26.98;;;;;;;5.05;100.00;102735.09;6173347;23;20020;-81
2022/03/15 07:40:23;;;;;;;53.40;29.08;;;;;;;5.08;100.00;102732.66;6205733;23;20230;-80
2022/03/15 07:42:52;;;;;;;53.33;26.63;;;;;;;5.13;100.00;102737.25;6186063;23;20016;-80
2022/03/15 07:45:24;;;;;;;50.35;29.90;;;;;;;5.16;100.00;102735.69;6218414;23;20020;-80
2022/03/15 07:47:53;;;;;;;52.13;27.15;;;;;;;5.19;100.00;102728.00;6188143;23;20027;-80
2022/03/15 07:50:25;;;;;;;54.03;29.20;;;;;;;5.23;100.00;102732.59;6123872;23;20024;-80
2022/03/15 07:52:58;;;;;;;49.15;27.08;;;;;;;5.26;100.00;102719.69;6248394;23;20020;-79
2022/03/15 07:55:26;;;;;;;53.58;29.95;;;;;;;5.30;100.00;102723.38;6177271;23;20145;-80
2022/03/15 07:57:54;;;;;;;58.78;28.73;;;;;;;5.34;100.00;102730.56;6217152;23;20031;-80
2022/03/15 08:00:23;;;;;;;50.40;29.08;;;;;;;5.37;100.00;102722.91;6182323;23;20016;-82
2022/03/15 08:02:52;;;;;;;53.78;29.90;;;;;;;5.40;100.00;102712.59;6221989;23;20350;-80
2022/03/15 08:05:22;;;;;;;52.30;29.02;;;;;;;5.44;100.00;102719.81;6206201;23;20242;-80
2022/03/15 08:07:52;;;;;;;60.88;30.63;;;;;;;5.48;100.00;102720.84;6173168;23;20020;-79
2022/03/15 08:10:23;;;;;;;55.53;30.23;;;;;;;5.53;100.00;102721.13;6213061;23;20135;-80
2022/03/15 08:12:52;;;;;;;56.05;28.38;;;;;;;5.56;100.00;102716.94;6244881;23;20350;-79
2022/03/15 08:15:23;;;;;;;53.78;29.08;;;;;;;5.58;100.00;102707.47;6185541;23;20024;-80
2022/03/15 08:17:52;;;;;;;47.50;28.27;;;;;;;5.62;100.00;102714.66;6221515;23;20016;-80
2022/03/15 08:20:20;;;;;;;55.13;29.65;;;;;;;5.67;100.00;102709.66;6182661;23;20020;-79
2022/03/15 08:22:49;;;;;;;47.22;28.20;;;;;;;5.70;100.00;102707.22;6209414;23;20024;-80
2022/03/15 08:25:23;;;;;;;52.22;30.50;;;;;;;5.73;100.00;102702.16;6178469;23;20213;-79
2022/03/15 08:27:52;;;;;;;;;;;;;;;5.76;100.00;102702.28;6203395;23;20020;-80
2022/03/15 08:30:21;;;;;;;66.72;30.90;;;;;;;5.80;100.00;102700.75;6219726;23;19915;-80
2022/03/15 08:32:49;;;;;;;56.55;29.30;;;;;;;5.83;100.00;102701.81;6221589;23;20016;-79
2022/03/15 08:35:18;;;;;;;56.00;29.23;;;;;;;5.88;100.00;102704.69;6219918;23;20221;-79
2022/03/15 08:37:50;;;;;;;49.20;28.80;;;;;;;5.93;100.00;102716.25;6180429;23;20027;-81
2022/03/15 08:40:23;;;;;;;49.25;28.90;;;;;;;5.98;100.00;102711.31;6241190;23;20444;-80
2022/03/15 08:42:55;;;;;;;55.00;30.48;;;;;;;6.03;100.00;102712.44;6211405;23;20024;-80
2022/03/15 08:45:24;;;;;;;48.95;28.77;;;;;;;6.08;100.00;102708.34;6215108;23;20038;-79
2022/03/15 08:47:53;;;;;;;59.17;30.00;;;;;;;6.13;100.00;102704.25;6163767;23;20020;-80
2022/03/15 08:50:21;;;;;;;52.65;28.52;;;;;;;6.16;100.00;102704.41;6216234;23;20370;-80
2022/03/15 08:52:50;;;;;;;55.47;28.70;;;;;;;6.22;100.00;102701.22;6210183;23;20023;-80
2022/03/15 08:55:22;;;;;;;53.25;30.02;;;;;;;6.28;100.00;102693.66;6153799;23;20059;-79
2022/03/15 08:57:51;;;;;;;51.22;28.25;;;;;;;6.34;100.00;102708.78;6220218;23;20012;-80
2022/03/15 09:00:23;;;;;;;49.67;29.13;;;;;;;6.38;100.00;102701.16;6153592;23;20035;-79
2022/03/15 09:02:52;;;;;;;49.70;29.70;;;;;;;6.42;100.00;102700.47;6212374;23;20024;-80
2022/03/15 09:05:21;;;;;;;57.13;30.02;;;;;;;6.43;100.00;102706.63;6192470;23;20087;-80
2022/03/15 09:07:53;;;;;;;50.92;29.70;;;;;;;6.43;100.00;102707.50;6161259;23;20350;-80
2022/03/15 09:10:23;;;;;;;48.08;28.70;;;;;;;6.47;100.00;102703.34;6160790;23;20119;-82
2022/03/15 09:12:55;;;;;;;46.83;28.65;;;;;;;6.51;100.00;102699.16;6246263;23;20030;-80
2022/03/15 09:15:25;;;;;;;49.17;27.38;;;;;;;6.54;100.00;102709.75;6241237;23;20055;-80
2022/03/15 09:17:53;;;;;;;43.22;26.70;;;;;;;6.55;100.00;102709.84;6224979;23;20450;-80
2022/03/15 09:20:25;;;;;;;49.90;28.65;;;;;;;6.57;100.00;102705.56;6259561;23;20026;-81
2022/03/15 09:22:53;;;;;;;40.30;25.35;;;;;;;6.60;100.00;102710.97;6251245;23;20031;-80
2022/03/15 09:25:26;;;;;;;52.67;29.92;;;;;;;6.63;100.00;102692.78;6185120;23;20020;-80
2022/03/15 09:27:55;;;;;;;49.08;27.20;;;;;;;6.68;100.00;102689.50;6255250;23;20031;-81
2022/03/15 09:30:23;;;;;;;43.28;27.40;;;;;;;6.71;100.00;102687.00;6239873;23;20020;-79
2022/03/15 09:32:52;;;;;;;52.60;27.70;;;;;;;6.73;100.00;102691.53;6202536;23;20079;-78
2022/03/15 09:35:21;;;;;;;43.92;27.05;;;;;;;6.75;100.00;102679.38;6189032;23;20019;-80
2022/03/15 09:37:50;;;;;;;45.65;29.00;;;;;;;6.80;100.00;102683.09;6202912;23;20072;-79
2022/03/15 09:40:25;;;;;;;39.28;25.05;;;;;;;6.83;100.00;102683.25;6185677;23;20024;-80
2022/03/15 09:42:59;;;;;;;41.65;25.42;;;;;;;6.86;100.00;102682.50;6214194;23;20024;-80
2022/03/15 09:45:33;;;;;;;40.78;26.60;;;;;;;6.90;100.00;102681.84;6215529;23;20631;-80
2022/03/15 09:48:08;;;;;;;38.45;25.48;;;;;;;6.94;100.00;102675.03;6203567;23;20019;-80
2022/03/15 09:50:39;;;;;;;38.83;27.52;;;;;;;6.96;100.00;102669.03;6197009;23;20337;-79
2022/03/15 09:53:09;;;;;;;44.85;26.88;;;;;;;7.00;100.00;102663.09;6217047;23;20020;-80
2022/03/15 09:55:38;;;;;;;41.78;28.58;;;;;;;7.07;100.00;102658.13;6207411;23;20027;-80
2022/03/15 09:58:06;;;;;;;43.97;27.38;;;;;;;7.19;100.00;102656.09;6181160;23;20020;-80
2022/03/15 10:00:37;;;;;;;45.08;27.15;;;;;;;7.33;100.00;102651.47;6183838;23;20043;-80
2022/03/15 10:03:05;;;;;;;40.67;27.02;;;;;;;7.46;100.00;102648.56;6232927;23;20016;-80
2022/03/15 10:05:35;;;;;;;45.90;27.33;;;;;;;7.62;100.00;102652.78;6221313;23;20215;-80
2022/03/15 10:08:04;;;;;;;39.10;27.40;;;;;;;7.79;100.00;102641.28;6243496;23;20019;-81
2022/03/15 10:10:32;;;;;;;40.17;26.90;;;;;;;7.97;100.00;102635.03;6181195;23;20204;-79
2022/03/15 10:13:02;;;;;;;41.03;25.95;;;;;;;8.15;100.00;102634.91;6208465;23;20024;-78
2022/03/15 10:15:31;;;;;;;38.15;24.25;;;;;;;8.30;100.00;102635.56;6177702;23;20205;-78
2022/03/15 10:18:04;;;;;;;36.35;25.27;;;;;;;8.39;100.00;102630.69;6204776;23;20023;-79
2022/03/15 10:20:41;;;;;;;33.67;23.17;;;;;;;8.49;100.00;102628.47;6196415;23;20026;-79
2022/03/15 10:23:10;;;;;;;35.80;24.00;;;;;;;8.59;100.00;102614.84;6242134;23;20079;-80
2022/03/15 10:25:45;;;;;;;32.35;22.95;;;;;;;8.71;100.00;102611.78;6209541;23;20028;-79
2022/03/15 10:28:15;;;;;;;31.13;22.48;;;;;;;8.83;100.00;102616.63;6180308;23;20358;-79
2022/03/15 10:30:46;;;;;;;28.75;22.17;;;;;;;8.86;100.00;102620.25;6241166;23;20021;-78
2022/03/15 10:33:16;;;;;;;30.77;20.98;;;;;;;8.91;100.00;102615.19;6225183;23;20024;-80
2022/03/15 10:35:49;;;;;;;30.40;22.70;;;;;;;8.94;100.00;102612.66;6192623;23;20023;-79
2022/03/15 10:38:18;;;;;;;27.63;20.30;;;;;;;9.00;100.00;102612.00;6215502;23;20231;-79
2022/03/15 10:40:51;;;;;;;36.50;22.90;;;;;;;9.04;100.00;102617.47;6207214;23;20020;-79
2022/03/15 10:43:23;;;;;;;;;;;;;;;9.01;100.00;102613.81;6205837;23;20190;-78
2022/03/15 10:45:58;;;;;;;28.08;20.80;;;;;;;9.03;100.00;102618.28;6215050;23;19923;-79
2022/03/15 10:48:32;;;;;;;35.30;21.67;;;;;;;9.06;100.00;102614.91;6203223;23;20016;-79
2022/03/15 10:51:09;;;;;;;32.90;21.92;;;;;;;9.06;100.00;102604.38;6246381;23;20028;-79
2022/03/15 10:53:40;;;;;;;36.65;23.13;;;;;;;9.04;100.00;102604.31;6246510;23;20023;-78
2022/03/15 10:56:08;;;;;;;30.02;21.42;;;;;;;9.03;100.00;102592.00;6184860;23;20450;-78
2022/03/15 10:59:02;;;;;;;26.40;21.65;;;;;;;9.06;100.00;102592.13;6184069;23;20075;-79
2022/03/15 11:01:42;;;;;;;32.28;21.58;;;;;;;9.09;100.00;102589.59;6242312;23;20147;-79
2022/03/15 11:04:11;;;;;;;32.28;20.38;;;;;;;9.14;100.00;102592.41;6190948;23;20024;-79
2022/03/15 11:06:44;;;;;;;35.00;20.20;;;;;;;9.19;100.00;102590.84;6172920;23;20020;-79
2022/03/15 11:09:31;;;;;;;26.58;20.25;;;;;;;9.21;100.00;102583.91;6217071;23;20385;-79
2022/03/15 11:12:10;;;;;;;30.60;20.88;;;;;;;9.21;100.00;102589.16;6216169;23;20016;-81
2022/03/15 11:14:57;;;;;;;;;;;;;;;9.21;100.00;102586.53;6189554;23;20023;-80
2022/03/15 11:17:32;;;;;;;29.75;20.50;;;;;;;9.20;100.00;102578.56;6203480;23;19915;-80
2022/03/15 11:20:02;;;;;;;27.92;20.50;;;;;;;9.18;100.00;102570.63;6224064;23;20020;-79
2022/03/15 11:22:32;;;;;;;31.10;20.65;;;;;;;9.18;100.00;102575.88;6195834;23;20020;-80
2022/03/15 11:25:04;;;;;;;30.23;19.70;;;;;;;9.18;100.00;102574.13;6226603;23;20012;-80
2022/03/15 11:27:35;;;;;;;28.85;19.23;;;;;;;9.19;100.00;102569.78;6188735;23;20713;-80